La Quinta, California
Current Conditions -  °F | °C
As of 1:52 AM on Saturday 22 Nov 2014 (Local Time) from KTRM Reporting Station
Clear Clear  
Wind Chill: 53°   Ceiling: Unl
Heat Index: 53°   Visibility: 10mi
Dew Point: 44°   Wind: 0mph
Humidity: 71%   Direction: NA
Pressure: 30"   Gusts: NA
Location:  33.68°N, 116.29°W
Report Text: KTRM 220952Z AUTO 00000KT 10SM CLR 12/07 A3000 RMK AO2 SLP161 T01170067 TSNO
Loading
Personal Weather Stations






























Interactive Weather Map New forecast layout! Learn more

10-Day Weather Forecast

Advertisements
Track Severe Weather on mobile